createdAt,value
2023-01-27T00:00:26.681Z,102641.22
2023-01-27T00:02:53.513Z,102637.19
2023-01-27T00:05:20.349Z,102633.66
2023-01-27T00:07:47.212Z,102630.09
2023-01-27T00:10:16.315Z,102634.56
2023-01-27T00:12:53.396Z,102641.69
2023-01-27T00:15:20.387Z,102636.72
2023-01-27T00:17:47.179Z,102625.22
2023-01-27T00:20:14.044Z,102636.53
2023-01-27T00:22:50.418Z,102638.22
2023-01-27T00:25:17.888Z,102625.97
2023-01-27T00:27:44.830Z,102625.13
2023-01-27T00:30:12.606Z,102628.41
2023-01-27T00:32:49.357Z,102618.03
2023-01-27T00:35:17.579Z,102627.66
2023-01-27T00:37:48.321Z,102618.19
2023-01-27T00:40:16.465Z,102615.50
2023-01-27T00:42:43.848Z,102615.59
2023-01-27T00:45:20.797Z,102612.03
2023-01-27T00:47:48.947Z,102605.97
2023-01-27T00:50:17.076Z,102601.66
2023-01-27T00:52:44.333Z,102600.91
2023-01-27T00:55:11.512Z,102601.66
2023-01-27T00:57:38.782Z,102589.31
2023-01-27T01:00:06.338Z,102601.56
2023-01-27T01:02:33.599Z,102602.34
2023-01-27T01:05:01.121Z,102597.19
2023-01-27T01:07:27.912Z,102588.41
2023-01-27T01:09:54.661Z,102589.41
2023-01-27T01:12:21.525Z,102595.50
2023-01-27T01:14:48.473Z,102580.72
2023-01-27T01:17:15.253Z,102583.25
2023-01-27T01:19:41.994Z,102588.41
2023-01-27T01:22:08.917Z,102592.03
2023-01-27T01:24:35.733Z,102590.34
2023-01-27T01:27:02.540Z,102574.81
2023-01-27T01:29:29.337Z,102576.00
2023-01-27T01:31:56.144Z,102579.53
2023-01-27T01:34:22.942Z,102583.84
2023-01-27T01:36:49.776Z,102568.16
2023-01-27T01:39:16.691Z,102570.97
2023-01-27T01:41:43.648Z,102567.50
2023-01-27T01:44:19.804Z,102577.97
2023-01-27T01:46:46.737Z,102575.41
2023-01-27T01:49:18.723Z,102567.38
2023-01-27T01:51:48.363Z,102572.63
2023-01-27T01:54:18.136Z,102573.47
2023-01-27T01:56:48.097Z,102571.81
2023-01-27T01:59:18.202Z,102568.34
2023-01-27T02:01:45.372Z,102568.34
2023-01-27T02:04:15.774Z,102557.88
2023-01-27T02:06:47.888Z,102557.75
2023-01-27T02:09:14.828Z,102550.88
2023-01-27T02:11:41.573Z,102552.63
2023-01-27T02:14:08.502Z,102555.25
2023-01-27T02:16:35.696Z,102549.06
2023-01-27T02:19:03.277Z,102551.69
2023-01-27T02:21:30.331Z,102544.78
2023-01-27T02:23:59.434Z,102548.47
2023-01-27T02:26:32.162Z,102563.72
2023-01-27T02:29:01.255Z,102557.56
2023-01-27T02:31:28.171Z,102555.94
2023-01-27T02:33:58.500Z,102546.50
2023-01-27T02:36:27.452Z,102550.63
2023-01-27T02:38:55.742Z,102555.84
2023-01-27T02:41:29.722Z,102554.09
2023-01-27T02:43:56.489Z,102541.94
2023-01-27T02:46:23.264Z,102541.09
2023-01-27T02:48:50.108Z,102553.31
2023-01-27T02:51:16.903Z,102549.00
2023-01-27T02:53:43.757Z,102548.16
2023-01-27T02:56:10.936Z,102538.38
2023-01-27T02:58:37.773Z,102551.38
2023-01-27T03:01:04.774Z,102546.13
2023-01-27T03:03:31.919Z,102550.78
2023-01-27T03:05:58.687Z,102551.03
2023-01-27T03:08:25.509Z,102551.31
2023-01-27T03:10:53.286Z,102546.06
2023-01-27T03:13:22.646Z,102552.22
2023-01-27T03:15:59.809Z,102548.69
2023-01-27T03:18:26.720Z,102552.34
2023-01-27T03:21:00.365Z,102563.53
2023-01-27T03:23:28.002Z,102562.63
2023-01-27T03:25:55.035Z,102565.22
2023-01-27T03:28:22.022Z,102578.50
2023-01-27T03:30:48.899Z,102571.38
2023-01-27T03:33:18.156Z,102578.38
2023-01-27T03:35:48.785Z,102575.19
2023-01-27T03:38:26.721Z,102574.44
2023-01-27T03:41:03.004Z,102573.84
2023-01-27T03:43:39.475Z,102569.47
2023-01-27T03:46:15.779Z,102573.00
2023-01-27T03:48:42.767Z,102568.63
2023-01-27T03:51:10.872Z,102566.09
2023-01-27T03:53:37.881Z,102554.78
2023-01-27T03:56:06.212Z,102550.38
2023-01-27T03:58:34.298Z,102551.25
2023-01-27T04:01:02.552Z,102538.09
2023-01-27T04:03:40.786Z,102547.59
2023-01-27T04:06:18.667Z,102547.50
2023-01-27T04:08:45.572Z,102553.34
2023-01-27T04:11:22.221Z,102546.41
2023-01-27T04:13:49.226Z,102549.97
2023-01-27T04:16:18.121Z,102548.94
2023-01-27T04:18:48.069Z,102552.22
2023-01-27T04:21:16.097Z,102545.34
2023-01-27T04:23:42.786Z,102552.34
2023-01-27T04:26:09.563Z,102553.25
2023-01-27T04:28:44.331Z,102565.22
2023-01-27T04:31:11.888Z,102540.19
2023-01-27T04:33:38.746Z,102535.88
2023-01-27T04:36:05.850Z,102529.88
2023-01-27T04:38:33.274Z,102539.41
2023-01-27T04:41:00.131Z,102552.50
2023-01-27T04:43:26.968Z,102543.91
2023-01-27T04:45:53.896Z,102547.38
2023-01-27T04:48:20.681Z,102545.75
2023-01-27T04:50:47.585Z,102539.00
2023-01-27T04:53:14.282Z,102540.13
2023-01-27T04:55:42.418Z,102554.97
2023-01-27T04:58:10.372Z,102542.72
2023-01-27T05:00:37.161Z,102547.97
2023-01-27T05:03:06.303Z,102553.44
2023-01-27T05:05:33.257Z,102547.25
2023-01-27T05:08:08.374Z,102551.41
2023-01-27T05:10:35.229Z,102549.72
2023-01-27T05:13:02.493Z,102557.47
2023-01-27T05:15:29.759Z,102559.09
2023-01-27T05:17:56.461Z,102570.47
2023-01-27T05:20:23.356Z,102557.47
2023-01-27T05:22:51.109Z,102558.31
2023-01-27T05:25:17.889Z,102562.63
2023-01-27T05:27:44.836Z,102562.47
2023-01-27T05:30:12.151Z,102557.25
2023-01-27T05:32:38.944Z,102555.53
2023-01-27T05:35:06.157Z,102550.13
2023-01-27T05:37:33.015Z,102549.88
2023-01-27T05:39:59.807Z,102550.78
2023-01-27T05:42:26.617Z,102568.28
2023-01-27T05:44:56.157Z,102555.28
2023-01-27T05:47:23.007Z,102562.28
2023-01-27T05:49:49.789Z,102554.38
2023-01-27T05:52:16.528Z,102553.59
2023-01-27T05:54:43.291Z,102555.38
2023-01-27T05:57:10.058Z,102554.44
2023-01-27T05:59:36.961Z,102561.38
2023-01-27T06:02:03.771Z,102553.34
2023-01-27T06:04:30.526Z,102560.19
2023-01-27T06:06:57.236Z,102541.69
2023-01-27T06:09:24.067Z,102551.88
2023-01-27T06:11:50.968Z,102553.84
2023-01-27T06:14:17.726Z,102553.25
2023-01-27T06:16:47.610Z,102537.56
2023-01-27T06:19:14.501Z,102556.53
2023-01-27T06:21:41.333Z,102554.59
2023-01-27T06:24:08.388Z,102547.00
2023-01-27T06:26:35.296Z,102551.31
2023-01-27T06:29:02.496Z,102553.06
2023-01-27T06:31:29.387Z,102550.38
2023-01-27T06:33:56.411Z,102546.00
2023-01-27T06:36:23.402Z,102540.75
2023-01-27T06:38:50.391Z,102541.50
2023-01-27T06:41:17.265Z,102539.66
2023-01-27T06:43:44.411Z,102540.44
2023-01-27T06:46:11.201Z,102540.44
2023-01-27T06:48:38.363Z,102537.81
2023-01-27T06:51:05.383Z,102540.44
2023-01-27T06:53:32.953Z,102541.28
2023-01-27T06:56:01.118Z,102548.16
2023-01-27T06:58:28.246Z,102537.63
2023-01-27T07:00:55.293Z,102543.69
2023-01-27T07:03:22.089Z,102540.06
2023-01-27T07:05:48.912Z,102542.50
2023-01-27T07:08:15.743Z,102536.34
2023-01-27T07:10:42.542Z,102543.16
2023-01-27T07:13:11.966Z,102540.81
2023-01-27T07:15:39.122Z,102550.38
2023-01-27T07:18:06.111Z,102547.47
2023-01-27T07:20:33.375Z,102557.19
2023-01-27T07:23:00.815Z,102548.31
2023-01-27T07:25:28.122Z,102551.69
2023-01-27T07:27:57.066Z,102546.63
2023-01-27T07:30:23.981Z,102554.28
2023-01-27T07:32:50.874Z,102553.38
2023-01-27T07:35:18.236Z,102561.81
2023-01-27T07:37:45.068Z,102569.50
2023-01-27T07:40:13.925Z,102579.78
2023-01-27T07:42:41.372Z,102577.81
2023-01-27T07:45:08.860Z,102578.59
2023-01-27T07:47:35.645Z,102578.13
2023-01-27T07:50:02.547Z,102570.53
2023-01-27T07:52:29.343Z,102569.88
2023-01-27T07:54:56.108Z,102571.66
2023-01-27T07:57:22.861Z,102578.78
2023-01-27T07:59:49.704Z,102570.16
2023-01-27T08:02:16.665Z,102577.16
2023-01-27T08:04:52.428Z,102579.00
2023-01-27T08:07:19.625Z,102569.66
2023-01-27T08:09:46.551Z,102566.97
2023-01-27T08:12:16.341Z,102573.13
2023-01-27T08:14:43.363Z,102586.97
2023-01-27T08:17:10.224Z,102580.81
2023-01-27T08:19:37.165Z,102577.81
2023-01-27T08:22:03.989Z,102579.34
2023-01-27T08:24:30.853Z,102588.78
2023-01-27T08:26:57.658Z,102589.94
2023-01-27T08:29:25.101Z,102588.94
2023-01-27T08:31:51.918Z,102590.53
2023-01-27T08:34:18.911Z,102605.22
2023-01-27T08:36:45.745Z,102602.63
2023-01-27T08:39:12.981Z,102597.47
2023-01-27T08:41:39.878Z,102600.00
2023-01-27T08:44:07.391Z,102604.28
2023-01-27T08:46:34.540Z,102608.66
2023-01-27T08:49:01.588Z,102603.44
2023-01-27T08:51:31.917Z,102599.63
2023-01-27T08:53:58.732Z,102597.09
2023-01-27T08:56:25.743Z,102608.31
2023-01-27T08:58:52.756Z,102608.16
2023-01-27T09:01:20.756Z,102611.72
2023-01-27T09:03:48.242Z,102595.91
2023-01-27T09:06:16.319Z,102601.03
2023-01-27T09:08:43.720Z,102600.03
2023-01-27T09:11:12.847Z,102617.59
2023-01-27T09:13:39.735Z,102618.44
2023-01-27T09:16:06.932Z,102624.19
2023-01-27T09:18:34.367Z,102610.03
2023-01-27T09:21:05.396Z,102617.91
2023-01-27T09:23:32.596Z,102619.78
2023-01-27T09:25:59.760Z,102618.47
2023-01-27T09:28:26.636Z,102622.06
2023-01-27T09:30:56.978Z,102630.50
2023-01-27T09:33:24.118Z,102625.81
2023-01-27T09:35:56.707Z,102617.69
2023-01-27T09:38:25.158Z,102621.03
2023-01-27T09:41:01.682Z,102614.59
2023-01-27T09:43:39.440Z,102608.34
2023-01-27T09:46:06.589Z,102617.97
2023-01-27T09:48:42.676Z,102609.19
2023-01-27T09:51:18.666Z,102609.91
2023-01-27T09:53:45.696Z,102608.69
2023-01-27T09:56:23.097Z,102612.09
2023-01-27T09:58:50.256Z,102604.66
2023-01-27T10:01:23.107Z,102608.81
2023-01-27T10:03:59.651Z,102613.78
2023-01-27T10:06:34.753Z,102613.41
2023-01-27T10:09:02.044Z,102623.66
2023-01-27T10:11:38.758Z,102619.13
2023-01-27T10:14:06.843Z,102620.34
2023-01-27T10:16:33.961Z,102634.84
2023-01-27T10:19:14.705Z,102638.25
2023-01-27T10:21:51.620Z,102631.84
2023-01-27T10:24:33.361Z,102648.00
2023-01-27T10:27:08.739Z,102643.56
2023-01-27T10:29:45.641Z,102642.34
2023-01-27T10:32:21.740Z,102647.69
2023-01-27T10:34:57.766Z,102649.28
2023-01-27T10:37:25.873Z,102644.88
2023-01-27T10:40:02.642Z,102646.84
2023-01-27T10:42:32.797Z,102638.50
2023-01-27T10:45:09.161Z,102640.84
2023-01-27T10:47:45.602Z,102630.59
2023-01-27T10:50:14.923Z,102633.69
2023-01-27T10:52:46.741Z,102633.50
2023-01-27T10:55:22.982Z,102635.09
2023-01-27T10:57:55.463Z,102629.00
2023-01-27T11:00:57.772Z,102627.31
2023-01-27T11:03:23.580Z,102621.13
2023-01-27T11:05:53.023Z,102616.91
2023-01-27T11:08:22.540Z,102614.28
2023-01-27T11:11:01.618Z,102620.19
2023-01-27T11:13:31.177Z,102621.69
2023-01-27T11:15:59.121Z,102624.09
2023-01-27T11:18:29.111Z,102618.53
2023-01-27T11:20:59.877Z,102617.44
2023-01-27T11:23:28.523Z,102623.31
2023-01-27T11:26:04.635Z,102623.03
2023-01-27T11:28:42.022Z,102616.84
2023-01-27T11:31:18.718Z,102605.28
2023-01-27T11:33:45.836Z,102612.22
2023-01-27T11:36:12.960Z,102603.59
2023-01-27T11:38:39.941Z,102599.84
2023-01-27T11:41:07.017Z,102608.25
2023-01-27T11:43:35.216Z,102594.19
2023-01-27T11:46:03.454Z,102594.91
2023-01-27T11:48:37.478Z,102592.59
2023-01-27T11:51:04.841Z,102601.31
2023-01-27T11:53:39.855Z,102584.72
2023-01-27T11:56:10.642Z,102592.28
2023-01-27T11:58:41.330Z,102583.38
2023-01-27T12:01:16.639Z,102585.59
2023-01-27T12:03:44.330Z,102587.16
2023-01-27T12:06:15.824Z,102591.59
2023-01-27T12:08:45.254Z,102586.53
2023-01-27T12:11:21.718Z,102582.22
2023-01-27T12:13:50.587Z,102582.44
2023-01-27T12:16:17.986Z,102586.19
2023-01-27T12:18:50.207Z,102582.72
2023-01-27T12:21:18.039Z,102580.22
2023-01-27T12:23:50.249Z,102584.47
2023-01-27T12:26:29.044Z,102580.53
2023-01-27T12:28:55.961Z,102578.47
2023-01-27T12:31:27.244Z,102577.34
2023-01-27T12:34:03.643Z,102571.13
2023-01-27T12:36:37.597Z,102572.72
2023-01-27T12:39:04.817Z,102575.81
2023-01-27T12:41:33.521Z,102573.91
2023-01-27T12:44:10.296Z,102566.03
2023-01-27T12:46:40.387Z,102576.53
2023-01-27T12:49:10.678Z,102571.28
2023-01-27T12:51:41.525Z,102569.19
2023-01-27T12:54:15.849Z,102567.94
2023-01-27T12:56:43.259Z,102576.13
2023-01-27T12:59:14.843Z,102567.09
2023-01-27T13:01:42.191Z,102577.72
2023-01-27T13:04:12.801Z,102566.25
2023-01-27T13:06:43.640Z,102570.66
2023-01-27T13:09:23.068Z,102556.72
2023-01-27T13:11:50.155Z,102557.44
2023-01-27T13:14:18.103Z,102554.72
2023-01-27T13:16:54.433Z,102552.81
2023-01-27T13:19:22.917Z,102552.81
2023-01-27T13:21:51.779Z,102557.25
2023-01-27T13:24:33.621Z,102551.88
2023-01-27T13:27:01.647Z,102551.31
2023-01-27T13:29:32.351Z,102554.72
2023-01-27T13:32:06.643Z,102544.81
2023-01-27T13:34:34.836Z,102548.22
2023-01-27T13:37:06.577Z,102549.59
2023-01-27T13:39:34.919Z,102543.56
2023-01-27T13:42:10.653Z,102551.06
2023-01-27T13:44:38.898Z,102545.47
2023-01-27T13:47:11.496Z,102550.31
2023-01-27T13:49:41.447Z,102546.63
2023-01-27T13:52:08.483Z,102546.97
2023-01-27T13:54:35.438Z,102546.19
2023-01-27T13:57:11.694Z,102552.22
2023-01-27T13:59:47.965Z,102548.75
2023-01-27T14:02:28.362Z,102552.53
2023-01-27T14:05:04.674Z,102550.00
2023-01-27T14:07:39.621Z,102550.94
2023-01-27T14:10:15.929Z,102556.94
2023-01-27T14:12:49.156Z,102559.13
2023-01-27T14:15:26.656Z,102556.41
2023-01-27T14:17:55.129Z,102557.34
2023-01-27T14:20:30.762Z,102563.34
2023-01-27T14:23:05.069Z,102563.34
2023-01-27T14:25:35.251Z,102562.19
2023-01-27T14:28:10.831Z,102560.63
2023-01-27T14:30:48.387Z,102558.09
2023-01-27T14:33:21.625Z,102557.34
2023-01-27T14:35:54.583Z,102563.22
2023-01-27T14:38:31.421Z,102561.44
2023-01-27T14:40:59.471Z,102565.75
2023-01-27T14:43:26.882Z,102562.19
2023-01-27T14:46:00.187Z,102566.47
2023-01-27T14:48:28.402Z,102572.78
2023-01-27T14:50:58.845Z,102572.38
2023-01-27T14:53:27.188Z,102572.16
2023-01-27T14:56:03.843Z,102578.28
2023-01-27T14:58:37.724Z,102576.38
2023-01-27T15:01:11.552Z,102581.00
2023-01-27T15:03:39.727Z,102590.88
2023-01-27T15:06:10.016Z,102588.47
2023-01-27T15:08:45.278Z,102583.59
2023-01-27T15:11:12.364Z,102588.94
2023-01-27T15:13:54.711Z,102603.16
2023-01-27T15:16:21.969Z,102598.84
2023-01-27T15:18:49.198Z,102595.44
2023-01-27T15:21:25.588Z,102591.88
2023-01-27T15:23:52.780Z,102602.09
2023-01-27T15:26:22.770Z,102600.22
2023-01-27T15:28:49.945Z,102605.47
2023-01-27T15:31:17.376Z,102604.53
2023-01-27T15:33:53.610Z,102598.31
2023-01-27T15:36:27.885Z,102596.00
2023-01-27T15:39:04.663Z,102602.19
2023-01-27T15:41:31.624Z,102604.81
2023-01-27T15:44:07.858Z,102599.69
2023-01-27T15:46:36.583Z,102602.47
2023-01-27T15:49:05.622Z,102604.94
2023-01-27T15:51:35.970Z,102604.19
2023-01-27T15:54:03.416Z,102611.34
2023-01-27T15:56:39.839Z,102615.19
2023-01-27T15:59:08.425Z,102601.63
2023-01-27T16:01:36.717Z,102612.97
2023-01-27T16:04:10.878Z,102605.38
2023-01-27T16:06:45.683Z,102600.97
2023-01-27T16:09:17.369Z,102604.34
2023-01-27T16:11:57.650Z,102599.19
2023-01-27T16:14:24.694Z,102604.47
2023-01-27T16:16:52.781Z,102598.34
2023-01-27T16:19:25.625Z,102598.22
2023-01-27T16:21:55.812Z,102596.56
2023-01-27T16:24:27.223Z,102593.19
2023-01-27T16:26:57.317Z,102600.53
2023-01-27T16:29:34.052Z,102604.31
2023-01-27T16:32:04.734Z,102608.78
2023-01-27T16:34:35.491Z,102603.31
2023-01-27T16:37:05.239Z,102599.28
2023-01-27T16:39:35.477Z,102595.47
2023-01-27T16:42:03.465Z,102592.47
2023-01-27T16:44:39.711Z,102592.88
2023-01-27T16:47:16.687Z,102596.63
2023-01-27T16:49:44.496Z,102604.59
2023-01-27T16:52:17.838Z,102614.03
2023-01-27T16:54:45.918Z,102621.00
2023-01-27T16:57:22.601Z,102616.66
2023-01-27T16:59:50.984Z,102630.00
2023-01-27T17:02:22.132Z,102625.88
2023-01-27T17:04:50.810Z,102626.53
2023-01-27T17:07:18.811Z,102638.78
2023-01-27T17:09:54.597Z,102645.06
2023-01-27T17:12:30.743Z,102640.88
2023-01-27T17:14:59.808Z,102650.50
2023-01-27T17:17:28.027Z,102647.97
2023-01-27T17:20:00.483Z,102653.97
2023-01-27T17:22:35.208Z,102647.97
2023-01-27T17:25:04.563Z,102654.34
2023-01-27T17:27:34.536Z,102651.81
2023-01-27T17:30:03.350Z,102652.78
2023-01-27T17:32:37.361Z,102658.09
2023-01-27T17:35:07.162Z,102661.66
2023-01-27T17:37:41.176Z,102661.56
2023-01-27T17:40:14.018Z,102656.50
2023-01-27T17:42:41.539Z,102673.09
2023-01-27T17:45:17.700Z,102671.41
2023-01-27T17:47:46.159Z,102679.38
2023-01-27T17:50:16.528Z,102683.00
2023-01-27T17:52:52.220Z,102687.41
2023-01-27T17:55:21.541Z,102687.53
2023-01-27T17:57:50.422Z,102692.75
2023-01-27T18:00:19.001Z,102684.06
2023-01-27T18:02:52.017Z,102685.81
2023-01-27T18:05:21.338Z,102685.91
2023-01-27T18:07:48.638Z,102688.72
2023-01-27T18:10:24.248Z,102689.56
2023-01-27T18:12:51.745Z,102687.94
2023-01-27T18:15:27.743Z,102691.59
2023-01-27T18:18:02.682Z,102691.75
2023-01-27T18:20:31.700Z,102685.78
2023-01-27T18:22:58.700Z,102700.75
2023-01-27T18:25:25.783Z,102697.47
2023-01-27T18:27:54.016Z,102696.81
2023-01-27T18:30:21.930Z,102698.69
2023-01-27T18:32:50.927Z,102701.28
2023-01-27T18:35:27.719Z,102703.16
2023-01-27T18:37:54.892Z,102700.72
2023-01-27T18:40:24.667Z,102698.19
2023-01-27T18:42:53.758Z,102699.22
2023-01-27T18:45:20.783Z,102705.59
2023-01-27T18:47:47.981Z,102706.50
2023-01-27T18:50:21.178Z,102711.06
2023-01-27T18:52:48.725Z,102711.06
2023-01-27T18:55:18.854Z,102709.22
2023-01-27T18:57:46.549Z,102714.44
2023-01-27T19:00:18.107Z,102708.63
2023-01-27T19:02:47.120Z,102701.22
2023-01-27T19:05:16.099Z,102710.88
2023-01-27T19:07:43.258Z,102716.19
2023-01-27T19:10:19.521Z,102709.31
2023-01-27T19:12:46.639Z,102706.06
2023-01-27T19:15:14.292Z,102716.44
2023-01-27T19:17:41.903Z,102707.09
2023-01-27T19:20:13.083Z,102706.31
2023-01-27T19:22:40.037Z,102713.31
2023-01-27T19:25:07.172Z,102716.97
2023-01-27T19:27:35.057Z,102716.22
2023-01-27T19:30:19.780Z,102722.38
2023-01-27T19:32:46.721Z,102724.91
2023-01-27T19:35:14.374Z,102725.91
2023-01-27T19:37:41.744Z,102734.72
2023-01-27T19:40:16.152Z,102727.81
2023-01-27T19:42:42.968Z,102722.81
2023-01-27T19:45:11.291Z,102712.59
2023-01-27T19:47:38.299Z,102718.59
2023-01-27T19:50:05.727Z,102715.03
2023-01-27T19:52:32.838Z,102716.16
2023-01-27T19:54:59.781Z,102713.59
2023-01-27T19:57:26.618Z,102714.63
2023-01-27T19:59:53.523Z,102709.41
2023-01-27T20:02:20.975Z,102706.00
2023-01-27T20:04:47.821Z,102712.25
2023-01-27T20:07:14.677Z,102704.50
2023-01-27T20:09:41.494Z,102695.03
2023-01-27T20:12:15.070Z,102700.28
2023-01-27T20:14:43.302Z,102711.78
2023-01-27T20:17:10.356Z,102708.97
2023-01-27T20:19:37.221Z,102714.22
2023-01-27T20:22:04.117Z,102718.69
2023-01-27T20:24:30.977Z,102718.19
2023-01-27T20:26:58.918Z,102726.38
2023-01-27T20:29:25.839Z,102717.75
2023-01-27T20:31:52.896Z,102716.16
2023-01-27T20:34:19.897Z,102723.22
2023-01-27T20:36:46.762Z,102726.09
2023-01-27T20:39:13.835Z,102730.69
2023-01-27T20:41:41.761Z,102735.25
2023-01-27T20:44:11.365Z,102730.16
2023-01-27T20:46:38.327Z,102740.94
2023-01-27T20:49:05.181Z,102738.31
2023-01-27T20:51:32.180Z,102739.53
2023-01-27T20:54:01.017Z,102743.81
2023-01-27T20:56:27.887Z,102735.22
2023-01-27T20:58:54.817Z,102746.59
2023-01-27T21:01:22.631Z,102743.13
2023-01-27T21:03:50.851Z,102746.66
2023-01-27T21:06:19.751Z,102738.91
2023-01-27T21:08:48.046Z,102741.53
2023-01-27T21:11:16.320Z,102745.56
2023-01-27T21:13:43.607Z,102746.84
2023-01-27T21:16:10.478Z,102745.22
2023-01-27T21:18:37.691Z,102747.16
2023-01-27T21:21:05.058Z,102744.72
2023-01-27T21:23:33.261Z,102742.19
2023-01-27T21:26:04.860Z,102740.41
2023-01-27T21:28:33.431Z,102734.41
2023-01-27T21:31:10.636Z,102733.72
2023-01-27T21:33:38.722Z,102751.44
2023-01-27T21:36:06.640Z,102740.03
2023-01-27T21:38:34.670Z,102734.09
2023-01-27T21:41:06.106Z,102735.81
2023-01-27T21:43:42.396Z,102727.28
2023-01-27T21:46:09.300Z,102725.66
2023-01-27T21:48:36.302Z,102722.59
2023-01-27T21:51:03.108Z,102731.53
2023-01-27T21:53:30.062Z,102733.44
2023-01-27T21:55:56.930Z,102722.31
2023-01-27T21:58:24.302Z,102732.00
2023-01-27T22:00:51.157Z,102724.06
2023-01-27T22:03:18.032Z,102727.41
2023-01-27T22:05:45.266Z,102724.91
2023-01-27T22:08:12.263Z,102720.47
2023-01-27T22:10:39.194Z,102714.16
2023-01-27T22:13:06.297Z,102710.69
2023-01-27T22:15:33.300Z,102721.22
2023-01-27T22:18:00.428Z,102716.78
2023-01-27T22:20:27.881Z,102725.59
2023-01-27T22:22:54.957Z,102731.00
2023-01-27T22:25:21.761Z,102724.25
2023-01-27T22:27:48.810Z,102726.06
2023-01-27T22:30:16.875Z,102733.84
2023-01-27T22:32:44.026Z,102727.72
2023-01-27T22:35:11.143Z,102727.41
2023-01-27T22:37:38.140Z,102726.38
2023-01-27T22:40:06.739Z,102715.00
2023-01-27T22:42:33.647Z,102710.63
2023-01-27T22:45:00.438Z,102703.78
2023-01-27T22:47:27.237Z,102708.09
2023-01-27T22:49:54.283Z,102706.38
2023-01-27T22:52:21.199Z,102705.63
2023-01-27T22:54:48.362Z,102706.31
2023-01-27T22:57:15.239Z,102710.63
2023-01-27T22:59:42.022Z,102703.63
2023-01-27T23:02:08.908Z,102706.06
2023-01-27T23:04:35.905Z,102709.38
2023-01-27T23:07:02.685Z,102710.22
2023-01-27T23:09:33.444Z,102710.22
2023-01-27T23:12:00.286Z,102722.44
2023-01-27T23:14:27.091Z,102716.28
2023-01-27T23:16:53.942Z,102719.91
2023-01-27T23:19:22.272Z,102724.13
2023-01-27T23:21:49.074Z,102722.28
2023-01-27T23:24:16.297Z,102724.91
2023-01-27T23:26:43.178Z,102730.81
2023-01-27T23:29:23.046Z,102719.38
2023-01-27T23:31:51.078Z,102723.50
2023-01-27T23:34:17.964Z,102718.53
2023-01-27T23:36:44.708Z,102719.44
2023-01-27T23:39:14.269Z,102719.38
2023-01-27T23:41:41.074Z,102713.34
2023-01-27T23:44:10.382Z,102717.81
2023-01-27T23:46:37.107Z,102717.00
2023-01-27T23:49:03.974Z,102712.69
2023-01-27T23:51:30.787Z,102717.91
2023-01-27T23:53:57.559Z,102708.44
2023-01-27T23:56:24.398Z,102726.75
2023-01-27T23:58:51.154Z,102720.78
